Time;durP1;ratioP1;P1;durP2;ratioP2;P2;SDS_P1;SDS_P2;PMS_P1;PMS_P2;Temp;Humidity;BMP_temperature;BMP_pressure;BME280_temperature;BME280_humidity;BME280_pressure;Samples;Min_cycle;Max_cycle;Signal;HPM_P1;HPM_P2
2023/01/10 00:02:22;;;;;;;21.05;2.50;;;5.10;99.90;;;;;;5005385;28;20387;-65
2023/01/10 00:04:48;;;;;;;19.50;2.25;;;5.10;99.90;;;;;;5005741;28;20410;-64
2023/01/10 00:07:13;;;;;;;19.38;2.15;;;5.00;99.90;;;;;;5021169;28;20381;-65
2023/01/10 00:09:39;;;;;;;14.95;1.70;;;5.10;99.90;;;;;;5040123;28;20378;-64
2023/01/10 00:14:49;;;;;;;18.77;1.98;;;4.90;99.90;;;;;;5024727;28;20490;-65
2023/01/10 00:17:15;;;;;;;16.02;1.90;;;5.00;99.90;;;;;;5026975;28;20048;-66
2023/01/10 00:19:41;;;;;;;19.30;2.15;;;4.80;99.90;;;;;;5005307;28;20087;-65
2023/01/10 00:22:07;;;;;;;17.40;2.10;;;4.70;99.90;;;;;;5039957;28;20041;-64
2023/01/10 00:24:33;;;;;;;19.13;2.17;;;4.80;99.90;;;;;;5021596;28;20292;-64
2023/01/10 00:26:59;;;;;;;15.00;1.70;;;4.60;99.90;;;;;;5020461;28;20045;-63
2023/01/10 00:29:34;;;;;;;18.13;2.08;;;4.60;99.90;;;;;;5022094;28;20049;-63
2023/01/10 00:32:00;;;;;;;22.08;2.10;;;4.30;99.90;;;;;;5040406;28;20116;-63
2023/01/10 00:34:25;;;;;;;21.10;2.55;;;4.30;99.90;;;;;;5039244;28;20071;-63
2023/01/10 00:36:51;;;;;;;19.05;2.78;;;4.40;99.90;;;;;;5022317;28;20041;-63
2023/01/10 00:39:20;;;;;;;16.10;2.13;;;4.20;99.90;;;;;;5039964;28;20041;-64
2023/01/10 00:44:30;;;;;;;19.52;2.03;;;4.30;99.90;;;;;;5016076;28;20057;-63
2023/01/10 00:46:56;;;;;;;22.65;2.95;;;4.40;99.90;;;;;;5021554;28;20053;-64
2023/01/10 00:49:23;;;;;;;23.00;2.85;;;4.20;99.90;;;;;;5038677;28;20047;-63
2023/01/10 00:51:49;;;;;;;18.35;2.47;;;4.20;99.90;;;;;;5021690;28;20048;-63
2023/01/10 00:54:15;;;;;;;23.75;2.70;;;4.60;99.90;;;;;;5022318;28;20052;-63
2023/01/10 00:56:41;;;;;;;21.63;2.95;;;4.50;99.90;;;;;;5039603;28;20025;-63
2023/01/10 00:59:07;;;;;;;24.25;3.10;;;4.80;99.90;;;;;;5025686;28;20040;-64
2023/01/10 01:01:33;;;;;;;19.88;2.83;;;4.70;99.90;;;;;;5022112;28;20180;-63
2023/01/10 01:04:05;;;;;;;21.48;2.67;;;4.80;99.90;;;;;;5020821;28;20048;-65
2023/01/10 01:06:30;;;;;;;18.83;2.50;;;4.70;99.90;;;;;;4990858;28;20037;-64
2023/01/10 01:08:56;;;;;;;22.63;2.50;;;4.60;99.90;;;;;;5022065;28;20036;-63
2023/01/10 01:11:22;;;;;;;27.73;3.00;;;4.70;99.90;;;;;;5021818;28;20132;-64
2023/01/10 01:13:47;;;;;;;24.58;2.78;;;4.80;99.90;;;;;;5004456;28;20128;-63
2023/01/10 01:16:13;;;;;;;23.73;2.97;;;4.70;99.90;;;;;;5006066;28;20479;-63
2023/01/10 01:18:39;;;;;;;19.48;2.42;;;4.60;99.90;;;;;;5039048;28;20568;-62
2023/01/10 01:21:05;;;;;;;27.70;3.40;;;4.60;99.90;;;;;;5041568;28;20045;-64
2023/01/10 01:23:33;;;;;;;20.80;2.40;;;4.50;99.90;;;;;;5021435;28;20533;-64
2023/01/10 01:25:59;;;;;;;24.17;2.80;;;4.60;99.90;;;;;;5005509;28;20040;-64
2023/01/10 01:28:25;;;;;;;21.08;2.38;;;4.40;99.90;;;;;;5005611;28;20048;-63
2023/01/10 01:30:51;;;;;;;30.98;3.53;;;4.40;99.90;;;;;;5039835;28;20410;-64
2023/01/10 01:33:18;;;;;;;25.77;2.95;;;4.60;99.90;;;;;;5040018;28;20464;-65
2023/01/10 01:35:49;;;;;;;24.58;3.33;;;4.40;99.90;;;;;;5004402;28;20037;-66
2023/01/10 01:38:16;;;;;;;22.02;2.78;;;4.60;99.90;;;;;;5005904;28;20099;-64
2023/01/10 01:40:43;;;;;;;32.70;3.17;;;4.80;99.90;;;;;;5006409;28;20064;-64
2023/01/10 01:43:25;;;;;;;26.15;3.05;;;4.50;99.90;;;;;;5039054;28;20529;-63
2023/01/10 01:45:51;;;;;;;26.27;3.30;;;4.60;99.90;;;;;;5021139;28;20068;-64
2023/01/10 01:48:16;;;;;;;18.88;3.03;;;4.40;99.90;;;;;;5021926;28;20055;-63
2023/01/10 01:51:06;;;;;;;30.58;3.00;;;4.50;99.90;;;;;;5038553;28;20045;-64
2023/01/10 01:53:49;;;;;;;26.33;3.03;;;4.50;99.90;;;;;;5032495;28;20533;-64
2023/01/10 01:56:20;;;;;;;24.33;3.08;;;4.20;99.90;;;;;;5039123;28;20045;-65
2023/01/10 01:58:47;;;;;;;30.55;3.17;;;4.30;99.90;;;;;;5038524;28;20118;-65
2023/01/10 02:01:15;;;;;;;25.10;3.05;;;4.20;99.90;;;;;;5017614;28;20048;-65
2023/01/10 02:03:44;;;;;;;27.00;2.33;;;4.20;99.90;;;;;;5038249;28;20212;-65
2023/01/10 02:06:10;;;;;;;31.00;2.88;;;4.20;99.90;;;;;;5039269;28;20052;-65
2023/01/10 02:08:42;;;;;;;23.92;2.80;;;4.00;99.90;;;;;;5003389;28;20439;-65
2023/01/10 02:11:09;;;;;;;23.25;2.33;;;4.00;99.90;;;;;;5021358;28;20119;-65
2023/01/10 02:13:42;;;;;;;20.58;3.03;;;4.20;99.90;;;;;;5038637;28;20780;-66
2023/01/10 02:16:08;;;;;;;26.55;2.60;;;4.30;99.90;;;;;;5037326;28;20063;-65
2023/01/10 02:18:37;;;;;;;24.60;2.90;;;4.20;99.90;;;;;;5021107;28;20045;-66
2023/01/10 02:21:15;;;;;;;28.05;2.58;;;4.40;99.90;;;;;;5038123;28;20128;-64
2023/01/10 02:24:13;;;;;;;26.92;2.97;;;4.50;99.90;;;;;;5007537;28;20518;-64
2023/01/10 02:27:24;;;;;;;28.25;2.88;;;4.50;99.90;;;;;;4999785;28;20722;-63
2023/01/10 02:30:00;;;;;;;24.73;3.45;;;4.70;99.90;;;;;;4921769;29;20485;-64
2023/01/10 02:32:34;;;;;;;28.20;3.33;;;4.90;99.90;;;;;;5005020;28;20060;-64
2023/01/10 02:35:40;;;;;;;27.02;3.17;;;4.90;99.90;;;;;;5019683;28;20491;-64
2023/01/10 02:38:29;;;;;;;25.55;3.30;;;4.90;99.90;;;;;;5037583;28;20131;-65
2023/01/10 02:41:27;;;;;;;28.75;2.38;;;4.70;99.90;;;;;;5009362;28;20041;-64
2023/01/10 02:44:03;;;;;;;23.58;3.55;;;4.70;99.90;;;;;;5005561;28;20348;-64
2023/01/10 02:46:30;;;;;;;31.40;3.65;;;4.70;99.90;;;;;;5038359;28;20041;-63
2023/01/10 02:48:56;;;;;;;30.27;3.08;;;4.60;99.90;;;;;;5021808;28;20124;-64
2023/01/10 02:51:32;;;;;;;27.73;2.92;;;4.80;99.90;;;;;;5039400;28;20090;-64
2023/01/10 02:54:22;;;;;;;29.30;3.67;;;4.60;99.90;;;;;;5008467;28;20475;-63
2023/01/10 02:57:08;;;;;;;28.83;2.88;;;4.50;99.90;;;;;;5039090;28;20041;-63
2023/01/10 02:59:45;;;;;;;30.30;2.85;;;4.80;99.90;;;;;;5038290;28;20501;-63
2023/01/10 03:02:21;;;;;;;31.27;3.45;;;4.70;99.90;;;;;;5019723;28;20051;-64
2023/01/10 03:05:14;;;;;;;26.90;3.30;;;4.70;99.90;;;;;;5019835;28;20052;-63
2023/01/10 03:08:00;;;;;;;24.10;2.70;;;4.70;99.90;;;;;;5010997;28;20403;-63
2023/01/10 03:10:36;;;;;;;26.02;3.30;;;4.70;99.90;;;;;;5019803;28;20099;-63
2023/01/10 03:13:20;;;;;;;30.42;3.63;;;4.60;99.90;;;;;;5003711;28;20148;-63
2023/01/10 03:15:48;;;;;;;26.35;3.10;;;4.50;99.90;;;;;;5037928;28;20099;-62
2023/01/10 03:18:23;;;;;;;31.92;2.45;;;4.70;99.90;;;;;;5019135;28;20510;-63
2023/01/10 03:20:51;;;;;;;18.73;2.15;;;4.60;99.90;;;;;;5016611;28;20476;-63
2023/01/10 03:23:21;;;;;;;23.67;2.90;;;4.40;99.90;;;;;;5018242;28;20087;-64
2023/01/10 03:25:48;;;;;;;27.95;3.45;;;4.60;99.90;;;;;;5018304;28;20144;-64
2023/01/10 03:28:29;;;;;;;22.10;2.67;;;4.60;99.90;;;;;;5016813;28;20135;-63
2023/01/10 03:31:06;;;;;;;22.02;2.25;;;4.80;99.90;;;;;;4987375;28;20038;-64
2023/01/10 03:33:33;;;;;;;22.17;2.67;;;4.90;99.90;;;;;;5017807;28;20041;-64
2023/01/10 03:35:59;;;;;;;19.27;2.88;;;4.80;99.90;;;;;;5018012;28;20053;-64
2023/01/10 03:38:36;;;;;;;25.05;2.83;;;5.00;99.90;;;;;;5016477;28;20503;-64
2023/01/10 03:41:12;;;;;;;22.38;2.55;;;5.20;99.90;;;;;;5000190;28;20033;-63
2023/01/10 03:47:10;;;;;;;24.88;2.95;;;5.30;99.90;;;;;;5019664;28;20523;-63
2023/01/10 03:49:39;;;;;;;23.98;2.92;;;5.30;99.90;;;;;;5020860;28;20045;-64
2023/01/10 03:52:07;;;;;;;25.08;3.00;;;5.50;99.90;;;;;;5019224;28;20112;-64
2023/01/10 03:54:33;;;;;;;28.55;3.47;;;5.20;99.90;;;;;;5020064;28;20056;-63
2023/01/10 03:56:59;;;;;;;25.95;2.58;;;5.40;99.90;;;;;;5020301;28;20041;-64
2023/01/10 03:59:27;;;;;;;20.23;2.88;;;5.20;99.90;;;;;;5020702;28;20037;-63
2023/01/10 04:01:53;;;;;;;22.10;2.88;;;5.10;99.90;;;;;;5021345;28;20030;-65
2023/01/10 04:04:20;;;;;;;20.85;2.38;;;5.00;99.90;;;;;;5002927;28;20123;-64
2023/01/10 04:06:46;;;;;;;26.50;3.35;;;4.90;99.90;;;;;;5018180;28;20046;-64
2023/01/10 04:09:12;;;;;;;24.55;2.72;;;5.10;99.90;;;;;;5019581;28;20107;-62
2023/01/10 04:11:38;;;;;;;23.45;2.83;;;4.90;99.90;;;;;;5019220;28;20120;-64
2023/01/10 04:14:03;;;;;;;22.83;2.58;;;5.00;99.90;;;;;;5021360;28;20825;-63
2023/01/10 04:16:29;;;;;;;27.33;3.78;;;4.90;99.90;;;;;;5003108;28;20762;-64
2023/01/10 04:18:55;;;;;;;26.45;3.28;;;5.00;99.90;;;;;;5022097;28;20103;-64
2023/01/10 04:21:21;;;;;;;26.83;3.35;;;4.90;99.90;;;;;;5022147;28;20080;-63
2023/01/10 04:23:46;;;;;;;19.52;2.83;;;5.00;99.90;;;;;;5021721;28;20037;-63
2023/01/10 04:26:12;;;;;;;32.53;2.63;;;4.90;99.90;;;;;;5023112;28;20055;-64
2023/01/10 04:28:38;;;;;;;26.88;3.05;;;4.80;99.90;;;;;;5038678;28;20048;-63
2023/01/10 04:31:04;;;;;;;31.73;4.07;;;5.00;99.90;;;;;;5040256;28;20041;-63
2023/01/10 04:33:29;;;;;;;22.08;2.90;;;4.70;99.90;;;;;;5004687;28;20041;-63
2023/01/10 04:35:55;;;;;;;22.73;2.92;;;4.70;99.90;;;;;;5022656;28;20045;-64
2023/01/10 04:38:21;;;;;;;24.40;3.10;;;4.70;99.90;;;;;;5039582;28;20044;-64
2023/01/10 04:40:55;;;;;;;28.13;4.20;;;4.80;99.90;;;;;;5040779;28;20033;-65
2023/01/10 04:43:21;;;;;;;22.15;2.92;;;4.80;99.90;;;;;;5021550;28;20041;-65
2023/01/10 04:45:47;;;;;;;19.25;3.00;;;4.60;99.90;;;;;;5022529;28;20040;-64
2023/01/10 04:48:12;;;;;;;24.58;3.33;;;4.90;99.90;;;;;;4988656;28;20465;-64
2023/01/10 04:50:38;;;;;;;32.03;3.78;;;4.70;99.90;;;;;;5022979;28;20037;-64
2023/01/10 04:53:04;;;;;;;24.05;3.67;;;5.00;99.90;;;;;;5021540;28;20355;-63
2023/01/10 04:55:31;;;;;;;29.10;3.75;;;4.90;99.90;;;;;;5021820;28;20059;-63
2023/01/10 04:57:57;;;;;;;29.10;4.30;;;4.80;99.90;;;;;;5039758;28;20553;-65
2023/01/10 05:00:22;;;;;;;31.85;3.88;;;4.60;99.90;;;;;;5038986;28;20183;-63
2023/01/10 05:02:48;;;;;;;28.13;3.80;;;4.40;99.90;;;;;;5039033;28;20032;-64
2023/01/10 05:05:14;;;;;;;30.23;3.88;;;4.60;99.90;;;;;;5008333;28;20053;-64
2023/01/10 05:07:40;;;;;;;32.40;4.18;;;4.40;99.90;;;;;;5027952;28;20110;-63
2023/01/10 05:10:07;;;;;;;36.92;4.72;;;4.40;99.90;;;;;;5039710;28;20071;-65
2023/01/10 05:12:33;;;;;;;35.80;4.90;;;4.70;99.90;;;;;;5020351;28;20037;-64
2023/01/10 05:14:59;;;;;;;33.45;4.50;;;4.40;99.90;;;;;;5020057;28;20038;-63
2023/01/10 05:17:25;;;;;;;25.65;4.18;;;4.70;99.90;;;;;;5021546;28;20115;-63
2023/01/10 05:19:51;;;;;;;25.05;3.35;;;4.60;99.90;;;;;;5020936;28;20123;-65
2023/01/10 05:22:17;;;;;;;22.48;3.90;;;4.50;99.90;;;;;;5021411;28;20128;-63
2023/01/10 05:24:42;;;;;;;25.13;3.95;;;4.80;99.90;;;;;;5039273;28;20461;-64
2023/01/10 05:27:08;;;;;;;30.42;4.03;;;4.90;99.90;;;;;;5039153;28;20884;-64
2023/01/10 05:29:34;;;;;;;23.55;3.38;;;4.60;99.90;;;;;;5020822;28;20041;-64
2023/01/10 05:31:59;;;;;;;27.80;4.05;;;5.00;99.90;;;;;;5005242;28;20049;-63
2023/01/10 05:34:25;;;;;;;27.10;4.28;;;4.90;99.90;;;;;;5038127;28;20072;-62
2023/01/10 05:36:51;;;;;;;29.00;4.60;;;5.10;99.90;;;;;;5004026;28;20029;-62
2023/01/10 05:39:17;;;;;;;24.92;4.53;;;5.00;99.90;;;;;;4987405;28;20503;-62
2023/01/10 05:41:43;;;;;;;29.63;4.85;;;5.10;99.90;;;;;;5020194;28;20467;-63
2023/01/10 05:44:08;;;;;;;22.70;4.20;;;4.80;99.90;;;;;;5037380;28;20118;-63
2023/01/10 05:46:34;;;;;;;23.95;3.33;;;4.90;99.90;;;;;;5038253;28;20514;-63
2023/01/10 05:49:00;;;;;;;26.88;4.32;;;5.10;99.90;;;;;;5038632;28;20390;-63
2023/01/10 05:51:26;;;;;;;33.08;4.00;;;4.80;99.90;;;;;;5020807;28;20407;-62
2023/01/10 05:53:51;;;;;;;26.17;3.83;;;5.20;99.90;;;;;;5020492;28;20036;-63
2023/01/10 05:56:17;;;;;;;27.95;4.28;;;4.70;99.90;;;;;;5038131;28;20043;-63
2023/01/10 05:58:43;;;;;;;19.35;2.90;;;4.80;99.90;;;;;;5038700;28;20395;-63
2023/01/10 06:01:09;;;;;;;24.33;3.20;;;5.10;99.90;;;;;;5020361;28;20029;-63
2023/01/10 06:03:35;;;;;;;22.90;3.53;;;4.90;99.90;;;;;;5019282;28;20040;-61
2023/01/10 06:06:02;;;;;;;28.08;3.55;;;5.00;99.90;;;;;;5004311;28;20056;-63
2023/01/10 06:08:28;;;;;;;21.83;3.42;;;5.30;99.90;;;;;;5037768;28;20518;-62
2023/01/10 06:10:54;;;;;;;22.25;3.60;;;5.40;99.90;;;;;;5019878;28;20040;-63
2023/01/10 06:13:20;;;;;;;21.75;3.38;;;5.30;99.90;;;;;;5019820;28;20059;-64
2023/01/10 06:15:47;;;;;;;23.08;3.63;;;5.40;99.90;;;;;;5020784;28;20041;-64
2023/01/10 06:18:13;;;;;;;19.98;2.67;;;5.40;99.90;;;;;;5018897;28;20041;-64
2023/01/10 06:20:42;;;;;;;18.42;2.95;;;5.20;99.90;;;;;;5036333;28;20391;-64
2023/01/10 06:23:08;;;;;;;22.10;3.10;;;5.20;99.90;;;;;;5018362;28;20094;-64
2023/01/10 06:25:39;;;;;;;17.35;2.65;;;5.40;99.90;;;;;;5005278;28;20062;-65
2023/01/10 06:28:05;;;;;;;26.58;3.10;;;5.40;99.90;;;;;;5019076;28;20037;-63
2023/01/10 06:30:31;;;;;;;16.92;2.88;;;5.50;99.90;;;;;;5019609;28;20048;-62
2023/01/10 06:33:05;;;;;;;20.23;2.60;;;5.60;99.90;;;;;;5018525;28;20052;-63
2023/01/10 06:35:30;;;;;;;;;;;5.50;99.90;;;;;;5037284;28;20084;-63
2023/01/10 06:37:56;;;;;;;14.48;2.35;;;5.60;99.90;;;;;;5036238;28;20376;-65
2023/01/10 06:40:23;;;;;;;17.95;2.75;;;5.20;99.90;;;;;;5037683;28;20041;-64
2023/01/10 06:42:49;;;;;;;18.17;2.33;;;5.20;99.90;;;;;;5038333;28;20033;-64
2023/01/10 06:45:15;;;;;;;20.40;3.42;;;5.20;99.90;;;;;;5020044;28;20077;-63
2023/01/10 06:47:41;;;;;;;20.45;2.90;;;5.50;99.90;;;;;;5018810;28;20414;-64
2023/01/10 06:50:07;;;;;;;23.95;3.22;;;5.20;99.90;;;;;;5019360;28;20103;-63
2023/01/10 06:52:33;;;;;;;17.95;2.63;;;5.30;99.90;;;;;;5037989;28;20037;-64
2023/01/10 06:54:59;;;;;;;19.00;3.75;;;5.30;99.90;;;;;;4986359;28;20048;-64
2023/01/10 06:57:27;;;;;;;21.60;3.95;;;5.40;99.90;;;;;;5019992;28;20090;-64
2023/01/10 06:59:53;;;;;;;26.92;4.32;;;5.10;99.90;;;;;;5038607;28;20045;-64
2023/01/10 07:02:19;;;;;;;22.27;4.72;;;5.20;99.90;;;;;;5038188;28;20545;-64
2023/01/10 07:04:44;;;;;;;26.00;4.90;;;5.00;99.90;;;;;;5036831;28;20270;-64
2023/01/10 07:07:10;;;;;;;25.40;4.88;;;5.20;99.90;;;;;;5019916;28;20063;-63
2023/01/10 07:09:36;;;;;;;25.35;4.57;;;4.90;99.90;;;;;;5020003;28;20047;-63
2023/01/10 07:12:02;;;;;;;23.85;4.60;;;4.70;99.90;;;;;;5002801;28;20037;-63
2023/01/10 07:14:27;;;;;;;25.73;4.90;;;5.00;99.90;;;;;;5018306;28;20540;-64
2023/01/10 07:16:53;;;;;;;22.33;4.07;;;4.60;99.90;;;;;;5023696;28;20029;-63
2023/01/10 07:19:19;;;;;;;21.15;4.10;;;4.80;99.90;;;;;;5021959;28;20041;-63
2023/01/10 07:21:44;;;;;;;27.33;4.95;;;4.60;99.90;;;;;;5040355;28;20489;-63
2023/01/10 07:24:10;;;;;;;23.23;4.60;;;4.60;99.90;;;;;;5040274;28;20471;-62
2023/01/10 07:26:36;;;;;;;21.25;4.53;;;4.70;99.90;;;;;;5041518;28;20045;-63
2023/01/10 07:29:01;;;;;;;23.33;5.05;;;4.70;99.90;;;;;;5021980;28;20120;-63
2023/01/10 07:31:27;;;;;;;26.27;5.75;;;4.80;99.90;;;;;;5040197;28;20102;-64
2023/01/10 07:33:53;;;;;;;22.35;5.10;;;4.80;99.90;;;;;;5022655;28;20051;-62
2023/01/10 07:36:19;;;;;;;27.38;4.53;;;5.00;99.90;;;;;;5040564;28;20041;-62
2023/01/10 07:38:45;;;;;;;21.58;3.95;;;4.90;99.90;;;;;;5022563;28;20917;-66
2023/01/10 07:41:10;;;;;;;20.13;4.30;;;4.70;99.90;;;;;;5027840;28;20116;-63
2023/01/10 07:43:36;;;;;;;17.25;3.30;;;4.70;99.90;;;;;;5040526;28;20037;-62
2023/01/10 07:46:06;;;;;;;16.35;3.67;;;4.90;99.90;;;;;;5040234;28;20094;-64
2023/01/10 07:48:32;;;;;;;19.20;3.53;;;5.10;99.90;;;;;;5039279;28;20114;-63
2023/01/10 07:50:59;;;;;;;21.60;3.38;;;5.10;99.90;;;;;;5040846;28;20041;-64
2023/01/10 07:53:26;;;;;;;23.45;3.42;;;5.00;99.90;;;;;;5024186;28;20109;-63
2023/01/10 07:55:52;;;;;;;18.15;3.65;;;5.10;99.90;;;;;;5010950;28;20265;-64
2023/01/10 07:58:19;;;;;;;22.58;3.47;;;4.70;99.90;;;;;;5009228;28;20104;-62
2023/01/10 08:00:45;;;;;;;20.85;3.10;;;5.00;99.90;;;;;;5022950;28;20080;-64
2023/01/10 08:03:12;;;;;;;29.30;4.13;;;5.00;99.90;;;;;;5041630;28;20048;-62
2023/01/10 08:05:38;;;;;;;16.73;3.47;;;5.00;99.90;;;;;;5023679;28;20417;-64
2023/01/10 08:08:05;;;;;;;27.73;3.88;;;5.00;99.90;;;;;;5041466;28;20546;-63
2023/01/10 08:10:35;;;;;;;24.63;4.18;;;5.10;99.90;;;;;;5041907;28;20064;-63
2023/01/10 08:13:02;;;;;;;24.67;4.43;;;4.80;99.90;;;;;;5021577;28;20041;-64
2023/01/10 08:15:28;;;;;;;20.08;4.00;;;4.90;99.90;;;;;;5037334;28;20044;-63
2023/01/10 08:17:53;;;;;;;23.95;4.32;;;4.80;99.90;;;;;;5039012;28;20036;-63
2023/01/10 08:20:19;;;;;;;27.45;5.05;;;4.80;99.90;;;;;;5020176;28;20059;-63
2023/01/10 08:22:45;;;;;;;24.08;4.55;;;4.80;99.90;;;;;;5038852;28;20110;-63
2023/01/10 08:25:11;;;;;;;31.17;4.90;;;5.20;99.90;;;;;;5039347;28;20084;-63
2023/01/10 08:27:37;;;;;;;23.48;4.47;;;5.00;99.90;;;;;;5038186;28;20049;-63
2023/01/10 08:30:04;;;;;;;36.22;5.07;;;5.30;99.90;;;;;;5038545;28;20453;-63
2023/01/10 08:32:30;;;;;;;30.08;5.75;;;5.20;99.90;;;;;;5019858;28;20056;-63
2023/01/10 08:34:56;;;;;;;33.00;5.80;;;5.40;99.90;;;;;;5039338;28;21232;-64
2023/01/10 08:37:22;;;;;;;32.97;5.40;;;5.30;99.90;;;;;;5003944;28;20064;-64
2023/01/10 08:39:47;;;;;;;26.35;5.30;;;5.50;99.90;;;;;;5038459;28;20048;-62
2023/01/10 08:42:15;;;;;;;31.50;5.50;;;5.20;99.90;;;;;;5019117;28;20044;-65
2023/01/10 08:44:41;;;;;;;29.63;5.68;;;5.70;99.90;;;;;;5021192;28;20478;-64
2023/01/10 08:47:07;;;;;;;30.27;5.68;;;5.40;99.90;;;;;;5038289;28;20049;-65
2023/01/10 08:49:33;;;;;;;29.05;5.78;;;5.80;99.90;;;;;;5019353;28;20289;-64
2023/01/10 08:52:01;;;;;;;28.63;5.22;;;5.90;99.90;;;;;;5037563;28;20078;-64
2023/01/10 08:54:26;;;;;;;32.55;5.50;;;5.70;99.90;;;;;;5019821;28;20075;-65
2023/01/10 08:56:52;;;;;;;43.15;6.28;;;5.70;99.90;;;;;;5038500;28;20127;-64
2023/01/10 08:59:18;;;;;;;31.08;6.03;;;5.90;99.90;;;;;;5003451;28;20048;-65
2023/01/10 09:01:44;;;;;;;31.95;6.13;;;5.70;99.90;;;;;;5038110;28;20044;-65
2023/01/10 09:04:09;;;;;;;33.00;5.35;;;5.90;99.90;;;;;;5037332;28;20060;-64
2023/01/10 09:06:36;;;;;;;29.05;5.80;;;5.80;99.90;;;;;;5008251;28;20100;-65
2023/01/10 09:09:02;;;;;;;29.65;5.65;;;5.90;99.90;;;;;;5004173;28;20094;-64
2023/01/10 09:11:28;;;;;;;32.90;5.60;;;6.20;99.90;;;;;;5020392;28;20487;-65
2023/01/10 09:13:54;;;;;;;41.95;5.68;;;6.00;99.90;;;;;;5009480;28;20033;-64
2023/01/10 09:16:19;;;;;;;41.50;5.72;;;6.20;99.90;;;;;;5019277;28;20056;-65
2023/01/10 09:18:45;;;;;;;31.10;5.00;;;6.00;99.90;;;;;;5032971;28;20110;-65
2023/01/10 09:21:11;;;;;;;39.05;6.10;;;6.00;99.90;;;;;;5018333;28;20067;-64
2023/01/10 09:23:38;;;;;;;30.73;4.82;;;6.30;99.90;;;;;;5002373;28;20049;-65
2023/01/10 09:26:04;;;;;;;36.60;5.90;;;6.20;99.90;;;;;;5018339;28;20498;-63
2023/01/10 09:28:30;;;;;;;31.50;4.80;;;6.40;99.90;;;;;;5037711;28;20140;-65
2023/01/10 09:30:56;;;;;;;31.30;5.10;;;6.10;99.90;;;;;;5001424;28;20135;-65
2023/01/10 09:33:23;;;;;;;35.92;5.53;;;6.40;99.90;;;;;;5020888;28;20051;-63
2023/01/10 09:35:50;;;;;;;33.75;5.25;;;6.40;99.90;;;;;;5037881;28;20410;-65
2023/01/10 09:38:21;;;;;;;31.60;4.95;;;6.50;99.90;;;;;;5038732;28;20810;-65
2023/01/10 09:40:59;;;;;;;33.53;4.97;;;6.40;99.90;;;;;;5021877;28;20083;-65
2023/01/10 09:44:04;;;;;;;36.80;6.15;;;6.80;99.90;;;;;;5007990;28;20036;-64
2023/01/10 09:46:53;;;;;;;32.85;4.68;;;6.90;99.90;;;;;;5039796;28;20132;-65
2023/01/10 09:49:37;;;;;;;28.95;4.65;;;6.90;99.90;;;;;;5021466;28;20057;-65
2023/01/10 09:52:07;;;;;;;30.25;3.90;;;6.90;99.90;;;;;;5037744;28;20098;-65
2023/01/10 09:54:43;;;;;;;26.60;4.32;;;6.80;99.90;;;;;;5005487;28;20231;-63
2023/01/10 09:57:18;;;;;;;22.13;3.65;;;7.00;99.90;;;;;;5038889;28;20076;-63
2023/01/10 09:59:49;;;;;;;27.85;3.60;;;7.00;99.90;;;;;;5022104;28;20091;-64
2023/01/10 10:02:39;;;;;;;27.80;3.88;;;7.00;99.90;;;;;;5039114;28;20482;-64
2023/01/10 10:05:19;;;;;;;32.03;4.50;;;6.90;99.90;;;;;;5039849;28;20080;-63
2023/01/10 10:07:50;;;;;;;28.48;3.65;;;6.90;99.90;;;;;;5038564;28;20088;-63
2023/01/10 10:10:21;;;;;;;25.52;3.55;;;7.00;99.90;;;;;;5039308;28;20033;-63
2023/01/10 10:13:08;;;;;;;28.90;4.00;;;7.10;99.90;;;;;;5021284;28;20036;-63
2023/01/10 10:16:04;;;;;;;22.92;3.35;;;7.00;99.90;;;;;;5021293;28;20080;-65
2023/01/10 10:18:41;;;;;;;24.02;3.70;;;7.00;99.90;;;;;;5019564;28;20045;-65
2023/01/10 10:21:27;;;;;;;29.77;3.83;;;6.90;99.90;;;;;;5008861;28;20557;-64
2023/01/10 10:24:21;;;;;;;26.58;3.78;;;6.90;99.90;;;;;;5020833;28;20047;-63
2023/01/10 10:26:58;;;;;;;20.33;2.90;;;7.00;99.90;;;;;;5020758;28;20047;-63
2023/01/10 10:29:45;;;;;;;23.15;3.75;;;6.90;99.90;;;;;;5038709;28;20040;-64
2023/01/10 10:32:26;;;;;;;22.52;4.05;;;7.10;99.90;;;;;;5019145;28;20044;-63
2023/01/10 10:35:04;;;;;;;28.80;4.57;;;7.20;99.90;;;;;;5021511;28;20125;-64
2023/01/10 10:37:36;;;;;;;28.10;4.18;;;7.10;99.90;;;;;;5034922;28;20312;-65
2023/01/10 10:40:13;;;;;;;26.70;4.65;;;7.10;99.90;;;;;;5021555;28;20037;-63
2023/01/10 10:42:43;;;;;;;28.60;4.55;;;7.10;99.90;;;;;;5021074;28;20447;-63
2023/01/10 10:45:43;;;;;;;27.20;4.60;;;7.20;99.90;;;;;;5039368;28;20041;-64
2023/01/10 10:48:26;;;;;;;24.35;4.38;;;7.20;99.90;;;;;;4994415;28;20545;-63
2023/01/10 10:51:17;;;;;;;23.60;4.37;;;7.10;99.90;;;;;;5041136;28;20110;-63
2023/01/10 10:53:45;;;;;;;29.70;4.35;;;7.20;99.90;;;;;;5042792;28;20287;-64
2023/01/10 10:56:14;;;;;;;24.88;4.28;;;7.20;99.90;;;;;;5024356;28;20053;-62
2023/01/10 10:58:43;;;;;;;23.65;4.68;;;7.10;99.90;;;;;;5024776;28;20053;-66
2023/01/10 11:01:15;;;;;;;21.38;4.10;;;7.20;99.90;;;;;;5025093;28;20044;-65
2023/01/10 11:04:04;;;;;;;25.73;4.20;;;7.20;99.90;;;;;;5007819;28;20051;-65
2023/01/10 11:06:31;;;;;;;26.38;3.95;;;7.10;99.90;;;;;;5023870;28;20570;-65
2023/01/10 11:09:01;;;;;;;32.42;5.18;;;7.20;99.90;;;;;;5024613;28;20149;-64
2023/01/10 11:11:37;;;;;;;29.38;4.40;;;7.10;99.90;;;;;;5041931;28;20064;-64
2023/01/10 11:14:05;;;;;;;27.80;4.30;;;7.20;99.90;;;;;;5041856;28;20033;-66
2023/01/10 11:16:39;;;;;;;27.77;3.90;;;7.20;99.90;;;;;;5042162;28;20071;-64
2023/01/10 11:19:19;;;;;;;26.23;3.47;;;7.20;99.90;;;;;;5041188;28;20453;-64
2023/01/10 11:22:02;;;;;;;26.27;4.07;;;7.30;99.90;;;;;;5042530;28;20045;-65
2023/01/10 11:24:38;;;;;;;28.65;3.90;;;7.30;81.60;;;;;;5006780;28;20128;-65
2023/01/10 11:27:14;;;;;;;24.42;3.67;;;7.20;1.00;;;;;;5042370;28;20479;-63
2023/01/10 11:29:55;;;;;;;24.45;4.10;;;7.30;1.00;;;;;;5051766;28;20040;-65
2023/01/10 11:32:28;;;;;;;29.50;3.88;;;7.20;1.00;;;;;;5041693;28;20040;-65
2023/01/10 11:35:19;;;;;;;28.00;4.93;;;7.20;1.00;;;;;;5024055;28;20700;-64
2023/01/10 11:38:17;;;;;;;25.25;4.22;;;7.20;1.00;;;;;;5023717;28;20492;-65
2023/01/10 11:41:22;;;;;;;27.60;4.30;;;7.20;1.00;;;;;;5042226;28;20120;-65
2023/01/10 11:43:48;;;;;;;28.30;4.22;;;7.20;1.00;;;;;;5041144;28;20511;-63
2023/01/10 11:46:21;;;;;;;28.63;4.95;;;7.20;1.00;;;;;;5023533;28;20044;-64
2023/01/10 11:49:02;;;;;;;28.80;4.40;;;7.20;1.00;;;;;;5040135;28;20045;-65
2023/01/10 11:51:33;;;;;;;26.25;5.18;;;7.20;1.00;;;;;;5022658;28;20045;-63
2023/01/10 11:54:02;;;;;;;31.35;5.22;;;7.20;2.10;;;;;;5006953;28;20053;-64
2023/01/10 11:56:31;;;;;;;31.63;5.43;;;7.30;31.30;;;;;;5006941;28;20056;-65
2023/01/10 11:58:59;;;;;;;28.77;5.13;;;7.30;1.00;;;;;;5024397;28;20167;-63
2023/01/10 12:01:28;;;;;;;29.48;6.05;;;7.30;1.00;;;;;;5042133;28;20037;-64
2023/01/10 12:03:54;;;;;;;27.83;5.75;;;7.30;1.00;;;;;;5042516;28;20110;-64
2023/01/10 12:06:21;;;;;;;32.65;6.10;;;7.20;1.00;;;;;;5007493;28;20045;-64
2023/01/10 12:08:48;;;;;;;29.35;6.22;;;7.20;1.00;;;;;;5007182;28;20040;-64
2023/01/10 12:11:16;;;;;;;27.63;5.95;;;7.30;1.00;;;;;;5040965;28;20059;-65
2023/01/10 12:13:45;;;;;;;31.55;7.18;;;7.30;1.00;;;;;;5041283;28;20144;-64
2023/01/10 12:16:22;;;;;;;30.00;7.03;;;7.30;1.00;;;;;;5041694;28;20036;-64
2023/01/10 12:18:51;;;;;;;36.00;7.53;;;7.30;1.00;;;;;;5039475;28;20037;-63
2023/01/10 12:21:40;;;;;;;33.42;8.23;;;7.40;1.00;;;;;;5041900;28;20071;-64
2023/01/10 12:24:14;;;;;;;31.25;8.00;;;7.30;99.90;;;;;;5041324;28;20131;-63
2023/01/10 12:26:41;;;;;;;32.35;8.88;;;7.30;99.90;;;;;;5008216;28;20053;-64
2023/01/10 12:29:34;;;;;;;28.25;7.25;;;7.30;1.00;;;;;;5042062;28;20047;-64
2023/01/10 12:32:03;;;;;;;30.73;8.23;;;7.20;99.90;;;;;;5006940;28;20071;-64
2023/01/10 12:34:43;;;;;;;26.73;8.35;;;7.30;1.00;;;;;;5041345;28;20363;-65
2023/01/10 12:37:41;;;;;;;33.65;9.27;;;7.30;99.90;;;;;;5022600;28;20138;-64
2023/01/10 12:40:18;;;;;;;29.40;8.60;;;7.30;1.00;;;;;;5007055;28;20119;-63
2023/01/10 12:45:35;;;;;;;28.67;8.35;;;7.20;99.90;;;;;;5040647;28;20063;-63
2023/01/10 12:48:21;;;;;;;30.65;9.32;;;7.20;99.90;;;;;;5040774;28;20797;-63
2023/01/10 12:50:58;;;;;;;29.25;7.75;;;7.30;99.90;;;;;;5024343;28;20134;-64
2023/01/10 12:53:34;;;;;;;34.03;8.00;;;7.20;99.90;;;;;;5041599;28;20145;-63
2023/01/10 12:56:04;;;;;;;33.17;7.28;;;7.20;99.90;;;;;;5022009;28;20152;-64
2023/01/10 12:58:49;;;;;;;32.97;7.95;;;7.20;99.90;;;;;;5021157;28;20041;-64
2023/01/10 13:01:26;;;;;;;28.33;7.10;;;7.30;99.90;;;;;;5020011;28;20436;-64
2023/01/10 13:04:01;;;;;;;31.85;7.03;;;7.20;99.90;;;;;;5039493;28;20044;-63
2023/01/10 13:06:31;;;;;;;28.85;6.78;;;7.20;99.90;;;;;;5021251;28;20052;-64
2023/01/10 13:09:01;;;;;;;31.13;6.80;;;7.20;99.90;;;;;;5022545;28;20136;-63
2023/01/10 13:11:31;;;;;;;35.28;6.53;;;7.20;99.90;;;;;;5040901;28;20044;-63
2023/01/10 13:14:00;;;;;;;30.42;6.78;;;7.20;99.90;;;;;;5040504;28;20570;-63
2023/01/10 13:16:38;;;;;;;28.98;6.22;;;7.10;99.90;;;;;;5039399;28;20091;-63
2023/01/10 13:19:23;;;;;;;27.35;6.30;;;7.10;99.90;;;;;;5039675;28;20041;-66